createdAt,value
2022-11-22T00:00:45.583Z,99638.03
2022-11-22T00:03:16.511Z,99634.58
2022-11-22T00:05:47.479Z,99626.84
2022-11-22T00:08:18.618Z,99625.95
2022-11-22T00:10:50.027Z,99624.22
2022-11-22T00:13:21.379Z,99622.53
2022-11-22T00:16:02.417Z,99623.36
2022-11-22T00:18:33.528Z,99608.72
2022-11-22T00:21:08.178Z,99607.00
2022-11-22T00:23:39.405Z,99610.41
2022-11-22T00:26:12.042Z,99601.83
2022-11-22T00:28:43.149Z,99600.08
2022-11-22T00:31:13.927Z,99603.53
2022-11-22T00:33:44.778Z,99596.69
2022-11-22T00:36:17.366Z,99596.69
2022-11-22T00:38:48.507Z,99592.37
2022-11-22T00:41:19.707Z,99588.95
2022-11-22T00:43:50.507Z,99596.68
2022-11-22T00:46:21.375Z,99591.53
2022-11-22T00:48:52.365Z,99584.63
2022-11-22T00:51:23.342Z,99582.89
2022-11-22T00:53:54.254Z,99576.00
2022-11-22T00:56:25.367Z,99573.41
2022-11-22T00:58:56.444Z,99572.53
2022-11-22T01:01:27.275Z,99562.23
2022-11-22T01:03:58.103Z,99559.64
2022-11-22T01:06:29.159Z,99550.20
2022-11-22T01:08:59.948Z,99562.19
2022-11-22T01:11:30.836Z,99548.43
2022-11-22T01:14:01.678Z,99544.13
2022-11-22T01:16:32.538Z,99550.97
2022-11-22T01:19:03.329Z,99548.36
2022-11-22T01:21:34.099Z,99538.90
2022-11-22T01:24:04.943Z,99533.72
2022-11-22T01:26:35.953Z,99534.56
2022-11-22T01:29:06.893Z,99538.86
2022-11-22T01:31:37.691Z,99525.97
2022-11-22T01:34:08.518Z,99533.70
2022-11-22T01:36:39.603Z,99526.84
2022-11-22T01:39:10.291Z,99529.34
2022-11-22T01:41:41.016Z,99527.66
2022-11-22T01:44:22.312Z,99527.66
2022-11-22T01:46:54.611Z,99519.04
2022-11-22T01:49:38.860Z,99522.52
2022-11-22T01:52:17.026Z,99511.31
2022-11-22T01:54:52.345Z,99503.64
2022-11-22T01:57:25.440Z,99502.78
2022-11-22T01:59:57.762Z,99504.49
2022-11-22T02:02:29.169Z,99496.76
2022-11-22T02:05:01.586Z,99490.76
2022-11-22T02:07:41.229Z,99479.59
2022-11-22T02:10:12.551Z,99477.88
2022-11-22T02:12:44.003Z,99472.72
2022-11-22T02:15:15.093Z,99464.14
2022-11-22T02:17:45.917Z,99463.28
2022-11-22T02:20:17.653Z,99456.42
2022-11-22T02:22:58.786Z,99448.68
2022-11-22T02:25:31.112Z,99450.38
2022-11-22T02:28:01.847Z,99451.23
2022-11-22T02:30:32.730Z,99443.50
2022-11-22T02:33:03.586Z,99440.05
2022-11-22T02:35:34.574Z,99432.34
2022-11-22T02:38:06.749Z,99432.32
2022-11-22T02:40:55.681Z,99428.86
2022-11-22T02:43:28.014Z,99421.19
2022-11-22T02:46:00.131Z,99421.19
2022-11-22T02:48:31.160Z,99423.78
2022-11-22T02:51:02.549Z,99412.61
2022-11-22T02:53:33.406Z,99408.33
2022-11-22T02:56:04.273Z,99412.61
2022-11-22T02:58:35.268Z,99412.61
2022-11-22T03:01:06.257Z,99398.01
2022-11-22T03:03:37.198Z,99393.69
2022-11-22T03:06:08.003Z,99394.53
2022-11-22T03:08:38.726Z,99388.52
2022-11-22T03:11:09.451Z,99383.33
2022-11-22T03:13:40.259Z,99380.73
2022-11-22T03:16:10.983Z,99377.28
2022-11-22T03:18:41.950Z,99371.30
2022-11-22T03:21:12.991Z,99369.53
2022-11-22T03:23:43.764Z,99362.66
2022-11-22T03:26:14.648Z,99362.66
2022-11-22T03:28:45.530Z,99359.19
2022-11-22T03:31:16.345Z,99353.97
2022-11-22T03:33:47.243Z,99357.41
2022-11-22T03:36:18.008Z,99345.37
2022-11-22T03:38:48.882Z,99343.61
2022-11-22T03:41:19.803Z,99342.70
2022-11-22T03:43:50.717Z,99340.13
2022-11-22T03:46:21.602Z,99334.95
2022-11-22T03:48:52.344Z,99338.37
2022-11-22T03:51:23.302Z,99328.06
2022-11-22T03:53:54.463Z,99333.14
2022-11-22T03:56:25.820Z,99333.14
2022-11-22T03:58:56.666Z,99329.73
2022-11-22T04:01:27.452Z,99321.91
2022-11-22T04:03:58.384Z,99333.06
2022-11-22T04:06:29.722Z,99318.41
2022-11-22T04:09:00.699Z,99320.07
2022-11-22T04:11:32.224Z,99313.13
2022-11-22T04:14:20.843Z,99307.09
2022-11-22T04:16:51.900Z,99298.42
2022-11-22T04:19:22.789Z,99301.91
2022-11-22T04:21:54.078Z,99295.06
2022-11-22T04:24:42.886Z,99295.88
2022-11-22T04:27:15.402Z,99286.39
2022-11-22T04:29:47.067Z,99278.58
2022-11-22T04:32:35.827Z,99283.73
2022-11-22T04:35:07.126Z,99273.42
2022-11-22T04:37:38.198Z,99279.47
2022-11-22T04:40:10.139Z,99270.02
2022-11-22T04:42:59.239Z,99257.97
2022-11-22T04:45:30.289Z,99259.72
2022-11-22T04:48:01.618Z,99262.30
2022-11-22T04:50:51.070Z,99251.12
2022-11-22T04:53:22.813Z,99259.59
2022-11-22T04:55:54.812Z,99261.39
2022-11-22T04:58:26.926Z,99255.38
2022-11-22T05:00:58.385Z,99253.63
2022-11-22T05:03:29.962Z,99249.27
2022-11-22T05:06:04.714Z,99241.46
2022-11-22T05:08:36.865Z,99222.42
2022-11-22T05:11:08.007Z,99212.09
2022-11-22T05:13:40.489Z,99209.45
2022-11-22T05:16:13.483Z,99204.27
2022-11-22T05:18:44.466Z,99196.51
2022-11-22T05:21:15.957Z,99210.22
2022-11-22T05:23:56.459Z,99201.59
2022-11-22T05:26:29.167Z,99200.70
2022-11-22T05:29:00.771Z,99189.44
2022-11-22T05:31:33.399Z,99185.14
2022-11-22T05:34:05.270Z,99189.29
2022-11-22T05:36:36.607Z,99197.92
2022-11-22T05:39:07.591Z,99186.66
2022-11-22T05:41:39.187Z,99178.91
2022-11-22T05:44:10.773Z,99185.67
2022-11-22T05:46:41.732Z,99183.84
2022-11-22T05:49:13.284Z,99178.56
2022-11-22T05:51:44.368Z,99169.06
2022-11-22T05:54:15.608Z,99168.14
2022-11-22T05:56:48.169Z,99164.67
2022-11-22T05:59:18.996Z,99160.19
2022-11-22T06:01:50.025Z,99158.46
2022-11-22T06:04:21.234Z,99157.51
2022-11-22T06:06:52.009Z,99159.13
2022-11-22T06:09:23.462Z,99146.92
2022-11-22T06:11:54.582Z,99152.80
2022-11-22T06:14:25.682Z,99146.61
2022-11-22T06:16:56.870Z,99141.34
2022-11-22T06:19:28.287Z,99144.65
2022-11-22T06:21:59.825Z,99142.73
2022-11-22T06:24:30.836Z,99139.22
2022-11-22T06:27:01.906Z,99139.11
2022-11-22T06:29:33.227Z,99152.76
2022-11-22T06:32:04.409Z,99135.46
2022-11-22T06:34:35.539Z,99137.19
2022-11-22T06:37:06.726Z,99120.78
2022-11-22T06:39:38.071Z,99131.91
2022-11-22T06:42:09.038Z,99124.13
2022-11-22T06:44:39.902Z,99109.37
2022-11-22T06:47:10.939Z,99103.23
2022-11-22T06:49:42.019Z,99111.63
2022-11-22T06:52:13.300Z,99111.45
2022-11-22T06:54:44.485Z,99103.43
2022-11-22T06:57:15.432Z,99111.00
2022-11-22T06:59:46.270Z,99099.75
2022-11-22T07:02:17.045Z,99103.20
2022-11-22T07:05:17.110Z,99102.16
2022-11-22T07:07:21.011Z,99104.86
2022-11-22T07:09:56.411Z,99099.80
2022-11-22T07:12:25.458Z,99100.77
2022-11-22T07:14:56.542Z,99102.53
2022-11-22T07:17:28.049Z,99099.05
2022-11-22T07:19:58.874Z,99088.63
2022-11-22T07:22:30.351Z,99092.11
2022-11-22T07:25:01.483Z,99082.70
2022-11-22T07:27:32.991Z,99072.33
2022-11-22T07:30:04.166Z,99079.19
2022-11-22T07:32:35.277Z,99083.61
2022-11-22T07:35:06.650Z,99088.70
2022-11-22T07:37:37.803Z,99079.14
2022-11-22T07:40:09.548Z,99078.17
2022-11-22T07:42:41.058Z,99071.98
2022-11-22T07:45:13.666Z,99073.70
2022-11-22T07:47:44.527Z,99070.06
2022-11-22T07:50:15.743Z,99065.63
2022-11-22T07:52:46.613Z,99075.86
2022-11-22T07:55:17.949Z,99067.05
2022-11-22T07:57:49.320Z,99063.59
2022-11-22T08:00:20.502Z,99057.39
2022-11-22T08:02:52.210Z,99055.59
2022-11-22T08:05:23.447Z,99053.70
2022-11-22T08:07:55.232Z,99063.18
2022-11-22T08:10:26.694Z,99066.55
2022-11-22T08:12:59.425Z,99063.96
2022-11-22T08:15:30.476Z,99065.61
2022-11-22T08:18:01.393Z,99067.25
2022-11-22T08:20:32.426Z,99066.42
2022-11-22T08:23:03.496Z,99059.48
2022-11-22T08:25:34.761Z,99064.58
2022-11-22T08:28:06.259Z,99061.95
2022-11-22T08:30:37.159Z,99059.36
2022-11-22T08:33:08.063Z,99062.65
2022-11-22T08:35:39.041Z,99056.73
2022-11-22T08:38:09.896Z,99048.84
2022-11-22T08:40:42.521Z,99050.56
2022-11-22T08:43:14.104Z,99053.98
2022-11-22T08:45:45.444Z,99041.85
2022-11-22T08:48:21.813Z,99040.05
2022-11-22T08:50:55.184Z,99039.22
2022-11-22T08:53:26.888Z,99035.73
2022-11-22T08:55:59.379Z,99035.64
2022-11-22T08:58:31.313Z,99025.16
2022-11-22T09:01:09.179Z,99029.34
2022-11-22T09:03:40.609Z,99021.41
2022-11-22T09:09:02.958Z,99023.69
2022-11-22T09:11:21.879Z,99019.14
2022-11-22T09:13:52.636Z,99020.83
2022-11-22T09:16:23.585Z,99017.29
2022-11-22T09:18:54.352Z,99005.16
2022-11-22T09:21:25.134Z,99011.97
2022-11-22T09:23:55.858Z,99011.06
2022-11-22T09:26:27.121Z,99014.42
2022-11-22T09:28:58.261Z,99011.61
2022-11-22T09:31:29.838Z,99016.70
2022-11-22T09:34:01.565Z,99009.06
2022-11-22T09:36:32.982Z,99017.74
2022-11-22T09:39:04.329Z,99018.52
2022-11-22T09:41:37.106Z,99012.61
2022-11-22T09:44:12.910Z,99007.52
2022-11-22T09:46:56.676Z,98998.06
2022-11-22T09:49:32.485Z,99000.70
2022-11-22T09:52:05.772Z,98998.16
2022-11-22T09:54:44.228Z,99008.52
2022-11-22T09:57:17.259Z,99003.25
2022-11-22T09:59:49.995Z,99011.78
2022-11-22T10:02:22.862Z,99003.83
2022-11-22T10:04:58.001Z,99006.10
2022-11-22T10:07:45.418Z,99000.14
2022-11-22T10:10:17.856Z,99000.92
2022-11-22T10:13:05.785Z,98997.50
2022-11-22T10:15:47.181Z,99002.64
2022-11-22T10:18:25.638Z,99006.86
2022-11-22T10:20:57.175Z,99001.55
2022-11-22T10:23:28.850Z,99007.36
2022-11-22T10:26:01.054Z,98993.30
2022-11-22T10:28:36.794Z,99002.61
2022-11-22T10:31:09.161Z,98980.34
2022-11-22T10:33:51.370Z,98990.89
2022-11-22T10:36:23.610Z,98982.11
2022-11-22T10:39:04.911Z,98989.13
2022-11-22T10:41:37.287Z,98978.70
2022-11-22T10:44:26.026Z,98983.84
2022-11-22T10:47:14.777Z,98974.25
2022-11-22T10:50:03.626Z,98973.33
2022-11-22T10:52:38.898Z,98971.41
2022-11-22T10:55:26.398Z,98973.61
2022-11-22T10:58:04.622Z,98961.27
2022-11-22T11:00:37.369Z,98956.84
2022-11-22T11:03:13.260Z,98953.33
2022-11-22T11:06:15.348Z,98950.73
2022-11-22T11:08:41.975Z,98940.22
2022-11-22T11:10:52.427Z,98945.55
2022-11-22T11:13:24.960Z,98950.48
2022-11-22T11:15:57.312Z,98944.63
2022-11-22T11:18:45.820Z,98935.17
2022-11-22T11:21:16.882Z,98938.59
2022-11-22T11:23:48.721Z,98930.91
2022-11-22T11:26:24.071Z,98939.66
2022-11-22T11:29:12.610Z,98933.51
2022-11-22T11:31:44.509Z,98938.78
2022-11-22T11:34:19.557Z,98931.88
2022-11-22T11:36:51.138Z,98937.97
2022-11-22T11:39:22.669Z,98927.50
2022-11-22T11:41:53.675Z,98929.13
2022-11-22T11:44:29.613Z,98934.37
2022-11-22T11:47:00.826Z,98927.30
2022-11-22T11:49:33.424Z,98914.53
2022-11-22T11:52:18.125Z,98922.31
2022-11-22T11:54:50.374Z,98923.99
2022-11-22T11:57:22.852Z,98916.21
2022-11-22T11:59:54.956Z,98914.42
2022-11-22T12:02:30.373Z,98919.72
2022-11-22T12:05:06.155Z,98914.28
2022-11-22T12:07:38.735Z,98916.21
2022-11-22T12:10:27.775Z,98910.36
2022-11-22T12:13:06.380Z,98911.03
2022-11-22T12:15:41.889Z,98925.81
2022-11-22T12:18:20.619Z,98925.01
2022-11-22T12:21:09.049Z,98925.81
2022-11-22T12:23:51.171Z,98925.63
2022-11-22T12:26:22.369Z,98924.91
2022-11-22T12:28:53.737Z,98915.66
2022-11-22T12:31:28.775Z,98920.84
2022-11-22T12:34:01.233Z,98923.44
2022-11-22T12:36:45.632Z,98903.55
2022-11-22T12:39:18.053Z,98911.33
2022-11-22T12:41:50.869Z,98907.77
2022-11-22T12:44:22.905Z,98901.83
2022-11-22T12:46:55.128Z,98908.78
2022-11-22T12:49:43.939Z,98913.97
2022-11-22T12:52:22.295Z,98903.66
2022-11-22T12:55:11.180Z,98897.56
2022-11-22T12:57:46.355Z,98902.08
2022-11-22T13:00:18.540Z,98910.72
2022-11-22T13:03:07.075Z,98902.94
2022-11-22T13:05:39.625Z,98890.74
2022-11-22T13:08:12.036Z,98896.59
2022-11-22T13:10:50.842Z,98899.19
2022-11-22T13:13:25.891Z,98899.08
2022-11-22T13:15:57.885Z,98888.66
2022-11-22T13:18:30.200Z,98888.49
2022-11-22T13:21:08.607Z,98899.69
2022-11-22T13:23:50.429Z,98893.53
2022-11-22T13:26:22.823Z,98892.47
2022-11-22T13:28:53.813Z,98901.92
2022-11-22T13:31:24.959Z,98899.53
2022-11-22T13:34:02.431Z,98895.16
2022-11-22T13:36:34.655Z,98895.00
2022-11-22T13:39:07.089Z,98886.67
2022-11-22T13:41:53.197Z,98891.86
2022-11-22T13:44:25.593Z,98891.75
2022-11-22T13:46:58.230Z,98893.38
2022-11-22T13:49:37.508Z,98889.87
2022-11-22T13:52:08.085Z,98896.80
2022-11-22T13:54:41.156Z,98907.11
2022-11-22T13:57:28.680Z,98892.41
2022-11-22T14:00:16.042Z,98904.36
2022-11-22T14:02:55.068Z,98902.62
2022-11-22T14:05:28.215Z,98896.20
2022-11-22T14:08:00.958Z,98888.54
2022-11-22T14:10:36.171Z,98891.27
2022-11-22T14:13:25.225Z,98898.31
2022-11-22T14:16:00.184Z,98889.76
2022-11-22T14:18:49.235Z,98887.98
2022-11-22T14:21:37.906Z,98891.27
2022-11-22T14:24:16.334Z,98892.10
2022-11-22T14:26:48.826Z,98893.17
2022-11-22T14:29:37.133Z,98884.62
2022-11-22T14:32:18.935Z,98882.69
2022-11-22T14:35:06.605Z,98892.24
2022-11-22T14:37:38.840Z,98882.69
2022-11-22T14:40:13.096Z,98876.48
2022-11-22T14:42:47.147Z,98879.94
2022-11-22T14:45:23.332Z,98872.20
2022-11-22T14:47:56.302Z,98867.02
2022-11-22T14:50:28.426Z,98866.05
2022-11-22T14:53:00.897Z,98873.94
2022-11-22T14:55:33.264Z,98869.61
2022-11-22T14:58:05.864Z,98861.88
2022-11-22T15:00:47.291Z,98872.92
2022-11-22T15:03:25.502Z,98865.79
2022-11-22T15:09:10.288Z,98863.34
2022-11-22T15:09:27.100Z,98865.19
2022-11-22T15:11:47.840Z,98869.61
2022-11-22T15:14:22.734Z,98867.98
2022-11-22T15:58:49.378Z,98868.33
2022-11-22T16:01:20.649Z,98869.30
2022-11-22T16:03:53.230Z,98862.43
2022-11-22T16:06:25.955Z,98864.97
2022-11-22T16:08:58.387Z,98856.27
2022-11-22T16:11:33.624Z,98866.65
2022-11-22T16:14:04.704Z,98864.71
2022-11-22T16:16:35.576Z,98865.68
2022-11-22T16:19:07.769Z,98869.90
2022-11-22T16:21:38.751Z,98871.52
2022-11-22T16:24:12.688Z,98874.00
2022-11-22T16:26:44.942Z,98874.00
2022-11-22T16:29:20.079Z,98874.06
2022-11-22T16:31:50.818Z,98863.73
2022-11-22T16:34:21.798Z,98869.02
2022-11-22T16:36:53.348Z,98870.64
2022-11-22T16:39:24.184Z,98866.27
2022-11-22T16:41:55.050Z,98869.61
2022-11-22T16:44:26.223Z,98863.51
2022-11-22T16:46:59.292Z,98856.44
2022-11-22T16:49:31.800Z,98850.42
2022-11-22T16:52:02.690Z,98852.16
2022-11-22T16:54:33.466Z,98851.25
2022-11-22T16:57:04.376Z,98848.65
2022-11-22T16:59:35.493Z,98848.65
2022-11-22T17:02:16.447Z,98845.17
2022-11-22T17:04:49.141Z,98843.28
2022-11-22T17:07:20.937Z,98840.81
2022-11-22T17:09:53.336Z,98840.75
2022-11-22T17:12:29.085Z,98836.41
2022-11-22T17:14:57.952Z,98839.72
2022-11-22T17:17:29.004Z,98847.44
2022-11-22T17:20:03.192Z,98841.39
2022-11-22T17:22:34.534Z,98848.36
2022-11-22T17:25:05.595Z,98843.99
2022-11-22T17:27:38.336Z,98831.08
2022-11-22T17:30:09.735Z,98839.59
2022-11-22T17:32:40.908Z,98824.02
2022-11-22T17:35:11.862Z,98837.88
2022-11-22T17:37:42.677Z,98836.20
2022-11-22T17:40:15.295Z,98842.96
2022-11-22T17:42:46.230Z,98836.03
2022-11-22T17:45:17.051Z,98834.34
2022-11-22T17:47:48.125Z,98847.23
2022-11-22T17:50:19.209Z,98849.98
2022-11-22T17:52:50.415Z,98844.64
2022-11-22T17:55:21.402Z,98846.36
2022-11-22T17:57:55.833Z,98845.44
2022-11-22T18:00:29.909Z,98840.13
2022-11-22T18:02:57.527Z,98843.70
2022-11-22T18:05:28.672Z,98845.44
2022-11-22T18:07:59.519Z,98842.05
2022-11-22T18:10:30.464Z,98849.06
2022-11-22T18:15:33.768Z,98847.50
2022-11-22T18:18:04.536Z,98842.48
2022-11-22T18:20:35.344Z,98844.20
2022-11-22T18:23:06.106Z,98842.43
2022-11-22T18:25:37.950Z,98839.06
2022-11-22T18:28:08.870Z,98843.46
2022-11-22T18:30:39.977Z,98842.70
2022-11-22T18:33:14.918Z,98844.31
2022-11-22T18:35:56.159Z,98842.70
2022-11-22T18:38:18.324Z,98847.09
2022-11-22T18:40:49.134Z,98842.75
2022-11-22T18:43:20.199Z,98848.86
2022-11-22T18:45:50.972Z,98854.81
2022-11-22T18:48:21.768Z,98845.28
2022-11-22T18:50:52.437Z,98848.70
2022-11-22T18:53:23.171Z,98855.67
2022-11-22T18:55:54.107Z,98859.30
2022-11-22T18:58:24.803Z,98857.61
2022-11-22T19:00:55.632Z,98852.27
2022-11-22T19:03:26.696Z,98841.13
2022-11-22T19:05:57.581Z,98848.91
2022-11-22T19:08:28.466Z,98838.59
2022-11-22T19:11:01.190Z,98836.05
2022-11-22T19:13:35.759Z,98848.05
2022-11-22T19:16:11.407Z,98839.30
2022-11-22T19:18:43.164Z,98845.58
2022-11-22T19:21:15.492Z,98845.66
2022-11-22T19:23:46.951Z,98847.46
2022-11-22T19:26:20.717Z,98843.19
2022-11-22T19:28:53.933Z,98841.42
2022-11-22T19:31:26.209Z,98843.19
2022-11-22T19:33:56.892Z,98829.30
2022-11-22T19:36:33.412Z,98825.79
2022-11-22T19:39:00.824Z,98824.05
2022-11-22T19:41:31.758Z,98821.28
2022-11-22T19:44:02.523Z,98809.99
2022-11-22T19:46:33.325Z,98823.67
2022-11-22T19:49:04.069Z,98816.74
2022-11-22T19:51:36.295Z,98818.69
2022-11-22T19:54:07.351Z,98827.36
2022-11-22T19:56:38.852Z,98830.92
2022-11-22T19:59:12.896Z,98826.59
2022-11-22T20:01:43.927Z,98828.27
2022-11-22T20:04:14.926Z,98816.09
2022-11-22T20:06:49.886Z,98815.23
2022-11-22T20:09:18.284Z,98809.08
2022-11-22T20:11:49.059Z,98819.63
2022-11-22T20:14:19.876Z,98821.28
2022-11-22T20:16:50.756Z,98829.89
2022-11-22T20:19:21.512Z,98837.62
2022-11-22T20:21:52.437Z,98838.42
2022-11-22T20:24:23.358Z,98845.34
2022-11-22T20:26:54.163Z,98839.30
2022-11-22T20:29:25.252Z,98838.33
2022-11-22T20:31:56.910Z,98844.44
2022-11-22T20:34:29.782Z,98847.03
2022-11-22T20:37:02.752Z,98849.56
2022-11-22T20:39:35.256Z,98847.83
2022-11-22T20:42:33.118Z,98852.16
2022-11-22T20:44:38.493Z,98848.65
2022-11-22T20:47:09.650Z,98852.87
2022-11-22T20:49:45.333Z,98842.37
2022-11-22T20:52:13.210Z,98855.34
2022-11-22T20:54:44.220Z,98842.31
2022-11-22T20:57:15.276Z,98844.11
2022-11-22T20:59:46.401Z,98838.16
2022-11-22T21:02:17.849Z,98846.86
2022-11-22T21:04:48.623Z,98835.67
2022-11-22T21:07:19.473Z,98828.69
2022-11-22T21:09:50.341Z,98821.66
2022-11-22T21:12:21.346Z,98813.17
2022-11-22T21:14:53.792Z,98821.73
2022-11-22T21:17:56.108Z,98826.15
2022-11-22T21:19:57.535Z,98820.16
2022-11-22T21:22:31.695Z,98818.48
2022-11-22T21:25:01.148Z,98814.20
2022-11-22T21:27:32.131Z,98821.94
2022-11-22T21:30:02.898Z,98816.69
2022-11-22T21:32:33.766Z,98807.13
2022-11-22T21:35:04.889Z,98809.78
2022-11-22T21:37:35.749Z,98819.34
2022-11-22T21:40:07.080Z,98821.94
2022-11-22T21:42:38.273Z,98817.56
2022-11-22T21:45:09.847Z,98813.23
2022-11-22T21:47:40.819Z,98808.05
2022-11-22T21:50:13.336Z,98813.17
2022-11-22T21:52:44.249Z,98812.37
2022-11-22T21:55:15.592Z,98801.94
2022-11-22T21:57:46.399Z,98810.58
2022-11-22T22:00:17.928Z,98824.41
2022-11-22T22:02:48.928Z,98822.76
2022-11-22T22:05:20.180Z,98823.73
2022-11-22T22:07:53.001Z,98818.48
2022-11-22T22:10:23.490Z,98817.66
2022-11-22T22:12:54.790Z,98819.34
2022-11-22T22:15:25.984Z,98814.20
2022-11-22T22:17:56.773Z,98804.74
2022-11-22T22:20:27.714Z,98805.56
2022-11-22T22:22:58.417Z,98801.35
2022-11-22T22:25:29.319Z,98793.51
2022-11-22T22:28:00.260Z,98796.05
2022-11-22T22:30:31.102Z,98791.70
2022-11-22T22:33:01.981Z,98791.70
2022-11-22T22:35:33.009Z,98789.12
2022-11-22T22:38:03.855Z,98790.85
2022-11-22T22:40:34.610Z,98780.47
2022-11-22T22:43:05.725Z,98781.45
2022-11-22T22:45:36.790Z,98785.78
2022-11-22T22:48:07.616Z,98783.19
2022-11-22T22:50:38.487Z,98782.27
2022-11-22T22:53:09.273Z,98783.07
2022-11-22T22:55:40.430Z,98770.95
2022-11-22T22:58:12.481Z,98772.57
2022-11-22T23:00:43.975Z,98770.09
2022-11-22T23:03:14.896Z,98776.20
2022-11-22T23:05:45.867Z,98776.26
2022-11-22T23:08:16.814Z,98768.47
2022-11-22T23:10:47.638Z,98766.70
2022-11-22T23:13:18.398Z,98765.77
2022-11-22T23:15:58.417Z,98769.13
2022-11-22T23:18:22.060Z,98772.57
2022-11-22T23:20:53.236Z,98767.44
2022-11-22T23:23:24.019Z,98765.61
2022-11-22T23:25:54.734Z,98765.61
2022-11-22T23:28:25.616Z,98769.00
2022-11-22T23:30:57.943Z,98764.63
2022-11-22T23:33:30.262Z,98767.23
2022-11-22T23:36:08.454Z,98772.36
2022-11-22T23:38:40.230Z,98775.81
2022-11-22T23:41:14.841Z,98777.55
2022-11-22T23:43:45.944Z,98769.77
2022-11-22T23:46:16.775Z,98769.77
2022-11-22T23:48:48.843Z,98772.36
2022-11-22T23:51:19.877Z,98772.36
2022-11-22T23:53:52.115Z,98770.41
2022-11-22T23:56:23.622Z,98758.34
2022-11-22T23:58:54.455Z,98767.05
